createdAt,value
2018-12-13T00:03:55.581Z,12.87
2018-12-13T00:09:00.381Z,11.50
2018-12-13T00:14:04.186Z,12.00
2018-12-13T00:19:08.052Z,11.90
2018-12-13T00:24:12.660Z,11.10
2018-12-13T00:40:22.823Z,11.50
2018-12-13T00:45:27.156Z,11.63
2018-12-13T00:50:31.652Z,12.47
2018-12-13T00:55:35.515Z,11.17
2018-12-13T01:00:39.416Z,11.40
2018-12-13T01:06:05.999Z,11.50
2018-12-13T01:11:10.539Z,11.47
2018-12-13T01:16:19.539Z,11.07
2018-12-13T01:21:24.089Z,11.37
2018-12-13T01:26:28.308Z,11.27
2018-12-13T01:31:32.829Z,10.97
2018-12-13T01:36:37.273Z,10.83
2018-12-13T01:41:41.072Z,11.63
2018-12-13T01:46:44.966Z,11.00
2018-12-13T01:52:01.581Z,11.50
2018-12-13T01:57:05.504Z,10.97
2018-12-13T02:02:09.860Z,10.20
2018-12-13T02:07:13.962Z,10.20
2018-12-13T02:18:07.092Z,9.40
2018-12-13T02:23:11.235Z,9.20
2018-12-13T02:28:14.919Z,9.57
2018-12-13T02:33:19.805Z,8.97
2018-12-13T02:38:24.689Z,10.03
2018-12-13T02:43:28.771Z,9.03
2018-12-13T02:48:33.009Z,9.93
2018-12-13T02:53:37.561Z,8.77
2018-12-13T02:58:41.142Z,9.03
2018-12-13T03:03:45.779Z,8.77
2018-12-13T03:08:49.821Z,8.27
2018-12-13T03:24:49.500Z,9.20
2018-12-13T03:29:53.064Z,8.23
2018-12-13T03:34:56.692Z,9.33
2018-12-13T03:40:01.225Z,10.23
2018-12-13T03:45:05.621Z,9.73
2018-12-13T03:50:10.442Z,9.13
2018-12-13T03:55:14.058Z,9.47
2018-12-13T04:00:17.668Z,9.80
2018-12-13T04:05:21.591Z,9.63
2018-12-13T04:10:25.567Z,9.47
2018-12-13T04:15:29.134Z,9.07
2018-12-13T04:20:33.621Z,8.83
2018-12-13T04:25:37.203Z,8.50
2018-12-13T04:30:40.930Z,9.30
2018-12-13T04:35:44.583Z,9.53
2018-12-13T04:40:49.223Z,8.83
2018-12-13T04:45:53.478Z,9.20
2018-12-13T04:50:57.105Z,8.47
2018-12-13T04:56:00.928Z,9.03
2018-12-13T05:01:04.563Z,8.33
2018-12-13T05:06:08.442Z,8.87
2018-12-13T05:11:12.347Z,8.07
2018-12-13T05:16:16.225Z,9.07
2018-12-13T05:21:20.124Z,7.67
2018-12-13T05:31:59.820Z,7.83
2018-12-13T05:37:04.301Z,7.93
2018-12-13T05:42:08.808Z,7.93
2018-12-13T05:47:12.502Z,7.90
2018-12-13T05:52:16.106Z,7.87
2018-12-13T05:57:37.041Z,7.57
2018-12-13T06:02:40.570Z,8.43
2018-12-13T06:07:44.453Z,7.80
2018-12-13T06:12:56.358Z,7.53
2018-12-13T06:18:06.653Z,7.77
2018-12-13T06:23:06.576Z,7.30
2018-12-13T06:28:10.930Z,7.83
2018-12-13T06:39:00.800Z,7.60
2018-12-13T06:44:04.921Z,7.73
2018-12-13T06:49:08.560Z,7.83
2018-12-13T06:54:12.119Z,7.80
2018-12-13T07:05:01.087Z,8.20
2018-12-13T07:10:05.264Z,8.60
2018-12-13T07:15:10.372Z,8.57
2018-12-13T07:20:14.506Z,9.30
2018-12-13T07:25:18.366Z,8.70
2018-12-13T07:30:46.654Z,8.57
2018-12-13T07:35:50.316Z,9.17
2018-12-13T07:41:00.662Z,9.27
2018-12-13T07:46:04.512Z,10.17
2018-12-13T07:51:16.932Z,9.40
2018-12-13T07:56:20.804Z,9.93
2018-12-13T08:01:24.291Z,9.67
2018-12-13T08:06:27.988Z,9.93
2018-12-13T08:11:32.032Z,9.83
2018-12-13T08:16:35.924Z,10.20
2018-12-13T08:21:39.488Z,11.10
2018-12-13T08:26:43.574Z,10.70
2018-12-13T08:31:47.623Z,11.07
2018-12-13T08:36:51.947Z,10.63
2018-12-13T08:41:56.017Z,11.40
2018-12-13T08:46:59.862Z,11.30
2018-12-13T08:52:03.723Z,10.63
2018-12-13T08:57:07.742Z,11.33
2018-12-13T09:02:11.397Z,11.73
2018-12-13T09:07:15.694Z,11.87
2018-12-13T09:12:19.304Z,11.53
2018-12-13T09:17:24.066Z,11.60
2018-12-13T09:22:28.759Z,11.73
2018-12-13T09:27:33.002Z,11.63
2018-12-13T09:32:37.371Z,10.93
2018-12-13T09:37:47.260Z,11.17
2018-12-13T09:42:49.440Z,10.83
2018-12-13T09:48:12.944Z,10.60
2018-12-13T09:53:17.675Z,11.57
2018-12-13T09:58:21.275Z,11.57
2018-12-13T10:03:25.244Z,11.47
2018-12-13T10:08:29.099Z,12.00
2018-12-13T10:13:33.342Z,11.37
2018-12-13T10:18:51.749Z,10.67
2018-12-13T10:23:55.336Z,9.90
2018-12-13T10:28:58.958Z,10.97
2018-12-13T10:34:02.803Z,10.17
2018-12-13T10:39:09.294Z,9.13
2018-12-13T10:44:23.980Z,10.50
2018-12-13T10:49:28.127Z,10.20
2018-12-13T10:54:31.849Z,9.77
2018-12-13T10:59:35.484Z,10.00
2018-12-13T11:04:39.052Z,9.40
2018-12-13T11:09:43.520Z,9.93
2018-12-13T11:14:47.354Z,9.63
2018-12-13T11:30:47.662Z,9.23
2018-12-13T11:35:51.734Z,9.20
2018-12-13T11:40:55.892Z,9.50
2018-12-13T11:45:59.778Z,9.47
2018-12-13T11:51:04.109Z,10.23
2018-12-13T11:56:08.112Z,9.57
2018-12-13T12:01:12.537Z,9.03
2018-12-13T12:06:17.568Z,9.43
2018-12-13T12:11:22.063Z,9.50
2018-12-13T12:16:26.259Z,10.30
2018-12-13T12:21:48.596Z,9.83
2018-12-13T12:26:53.768Z,10.53
2018-12-13T12:31:57.868Z,9.83
2018-12-13T12:37:01.508Z,9.57
2018-12-13T12:42:05.840Z,9.83
2018-12-13T12:47:10.998Z,9.90
2018-12-13T12:52:15.329Z,10.13
2018-12-13T12:57:19.403Z,10.33
2018-12-13T13:02:23.260Z,10.70
2018-12-13T13:07:27.131Z,10.50
2018-12-13T13:12:31.195Z,9.57
2018-12-13T13:17:35.320Z,10.20
2018-12-13T13:22:39.727Z,9.77
2018-12-13T13:27:44.184Z,10.37
2018-12-13T13:32:47.821Z,10.37
2018-12-13T13:37:52.448Z,9.93
2018-12-13T13:42:56.829Z,10.20
2018-12-13T13:48:01.051Z,9.83
2018-12-13T13:53:21.440Z,9.50
2018-12-13T13:58:25.707Z,9.57
2018-12-13T14:03:30.212Z,9.53
2018-12-13T14:08:34.074Z,9.43
2018-12-13T14:13:38.172Z,9.53
2018-12-13T14:18:42.612Z,10.33
2018-12-13T14:23:46.244Z,9.83
2018-12-13T14:28:50.277Z,11.13
2018-12-13T14:33:53.959Z,10.60
2018-12-13T14:38:57.843Z,11.33
2018-12-13T14:44:01.815Z,10.27
2018-12-13T14:49:06.031Z,10.07
2018-12-13T15:10:33.576Z,9.87
2018-12-13T15:15:37.583Z,9.20
2018-12-13T15:20:41.185Z,9.07
2018-12-13T15:25:44.781Z,9.00
2018-12-13T15:30:48.783Z,9.23
2018-12-13T15:35:52.308Z,8.90
2018-12-13T15:40:56.215Z,9.23
2018-12-13T15:46:01.619Z,8.77
2018-12-13T15:51:06.787Z,8.63
2018-12-13T15:56:10.826Z,9.67
2018-12-13T16:01:38.522Z,9.27
2018-12-13T16:06:42.082Z,8.87
2018-12-13T16:11:45.788Z,9.30
2018-12-13T16:16:49.722Z,8.47
2018-12-13T16:21:53.240Z,8.90
2018-12-13T16:32:25.229Z,8.00
2018-12-13T16:37:28.897Z,8.70
2018-12-13T16:42:33.727Z,8.50
2018-12-13T16:47:38.364Z,8.00
2018-12-13T16:52:42.637Z,8.50
2018-12-13T16:57:49.304Z,8.07
2018-12-13T17:02:52.939Z,8.03
2018-12-13T17:07:56.816Z,7.90
2018-12-13T17:13:01.735Z,8.13
2018-12-13T17:18:06.437Z,7.53
2018-12-13T17:23:10.465Z,7.37
2018-12-13T17:28:14.344Z,7.90
2018-12-13T17:33:17.891Z,7.90
2018-12-13T17:38:22.633Z,7.07
2018-12-13T17:43:26.450Z,6.93
2018-12-13T17:48:30.591Z,6.97
2018-12-13T17:59:05.800Z,7.23
2018-12-13T18:04:10.127Z,6.93
2018-12-13T18:09:14.200Z,7.13
2018-12-13T18:14:18.763Z,6.93
2018-12-13T18:19:22.647Z,7.50
2018-12-13T18:29:54.452Z,8.23
2018-12-13T18:34:58.356Z,8.00
2018-12-13T18:40:01.918Z,7.17
2018-12-13T18:45:08.849Z,8.43
2018-12-13T18:50:13.001Z,7.67
2018-12-13T18:55:17.303Z,8.00
2018-12-13T19:00:21.224Z,8.37
2018-12-13T19:05:24.811Z,8.00
2018-12-13T19:10:28.360Z,9.03
2018-12-13T19:21:04.437Z,9.27
2018-12-13T19:26:07.980Z,9.23
2018-12-13T19:31:11.963Z,8.20
2018-12-13T19:41:50.473Z,9.53
2018-12-13T19:46:54.512Z,10.30
2018-12-13T19:51:58.123Z,9.23
2018-12-13T19:57:02.022Z,9.60
2018-12-13T20:07:34.001Z,9.77
2018-12-13T20:12:37.612Z,9.10
2018-12-13T20:17:41.798Z,9.23
2018-12-13T20:22:45.929Z,9.87
2018-12-13T20:27:49.798Z,9.27
2018-12-13T20:32:54.041Z,10.20
2018-12-13T20:37:58.541Z,10.10
2018-12-13T20:43:02.132Z,10.67
2018-12-13T20:48:06.888Z,10.30
2018-12-13T20:53:11.004Z,10.47
2018-12-13T20:58:14.919Z,10.10
2018-12-13T21:03:19.454Z,11.27
2018-12-13T21:08:23.320Z,11.30
2018-12-13T21:13:27.939Z,10.73
2018-12-13T21:18:31.896Z,11.23
2018-12-13T21:23:36.096Z,10.47
2018-12-13T21:28:40.968Z,10.63
2018-12-13T21:33:45.592Z,10.33
2018-12-13T21:38:53.126Z,11.07
2018-12-13T22:00:20.778Z,11.40
2018-12-13T22:05:25.119Z,11.47
2018-12-13T22:15:57.412Z,11.70
2018-12-13T22:21:01.533Z,12.37
2018-12-13T22:26:05.169Z,12.27
2018-12-13T22:36:58.644Z,11.43
2018-12-13T22:42:03.303Z,12.43
2018-12-13T22:47:07.557Z,11.87
2018-12-13T22:52:12.769Z,11.80
2018-12-13T22:57:16.309Z,10.90
2018-12-13T23:02:23.077Z,11.03
2018-12-13T23:07:27.257Z,11.47
2018-12-13T23:12:30.864Z,10.93
2018-12-13T23:17:35.221Z,11.03
2018-12-13T23:22:38.993Z,10.80
2018-12-13T23:27:43.709Z,11.63
2018-12-13T23:32:48.029Z,11.23
2018-12-13T23:37:53.060Z,11.77
2018-12-13T23:42:57.412Z,11.17
2018-12-13T23:48:01.445Z,10.83
2018-12-13T23:53:05.601Z,10.93
2018-12-13T23:58:09.896Z,11.50
